sensor_id;sensor_type;location;lat;lon;timestamp;pressure;altitude;pressure_sealevel;temperature;humidity
38163;BME280;23977;53.078;18.248;2023-05-23T00:00:28;101214.41;;;10.03;100.00
38163;BME280;23977;53.078;18.248;2023-05-23T00:03:13;101155.03;;;9.65;100.00
38163;BME280;23977;53.078;18.248;2023-05-23T00:05:40;101157.69;;;9.65;100.00
38163;BME280;23977;53.078;18.248;2023-05-23T00:08:05;101175.97;;;9.77;100.00
38163;BME280;23977;53.078;18.248;2023-05-23T00:10:31;101195.44;;;9.78;100.00
38163;BME280;23977;53.078;18.248;2023-05-23T00:12:57;101220.44;;;9.85;100.00
38163;BME280;23977;53.078;18.248;2023-05-23T00:15:24;101218.75;;;9.84;100.00
38163;BME280;23977;53.078;18.248;2023-05-23T00:17:49;101214.03;;;9.78;100.00
38163;BME280;23977;53.078;18.248;2023-05-23T00:20:16;101182.47;;;9.55;100.00
38163;BME280;23977;53.078;18.248;2023-05-23T00:22:41;101191.44;;;9.44;100.00
38163;BME280;23977;53.078;18.248;2023-05-23T00:25:08;101232.81;;;9.67;100.00
38163;BME280;23977;53.078;18.248;2023-05-23T00:27:35;101170.22;;;9.15;100.00
38163;BME280;23977;53.078;18.248;2023-05-23T00:30:01;101144.81;;;9.03;100.00
38163;BME280;23977;53.078;18.248;2023-05-23T00:32:26;101175.09;;;9.30;100.00
38163;BME280;23977;53.078;18.248;2023-05-23T00:34:52;101221.22;;;9.58;100.00
38163;BME280;23977;53.078;18.248;2023-05-23T00:37:19;101085.16;;;8.68;100.00
38163;BME280;23977;53.078;18.248;2023-05-23T00:39:45;101210.19;;;9.43;100.00
38163;BME280;23977;53.078;18.248;2023-05-23T00:42:10;101201.22;;;9.44;100.00
38163;BME280;23977;53.078;18.248;2023-05-23T00:44:36;101169.94;;;9.28;100.00
38163;BME280;23977;53.078;18.248;2023-05-23T00:47:02;101191.47;;;9.25;100.00
38163;BME280;23977;53.078;18.248;2023-05-23T00:49:28;101098.28;;;8.60;100.00
38163;BME280;23977;53.078;18.248;2023-05-23T00:51:54;101171.91;;;8.97;100.00
38163;BME280;23977;53.078;18.248;2023-05-23T00:54:23;101205.72;;;9.24;100.00
38163;BME280;23977;53.078;18.248;2023-05-23T00:56:50;101217.16;;;9.44;100.00
38163;BME280;23977;53.078;18.248;2023-05-23T00:59:16;101194.81;;;9.17;100.00
38163;BME280;23977;53.078;18.248;2023-05-23T01:01:42;101162.97;;;8.98;100.00
38163;BME280;23977;53.078;18.248;2023-05-23T01:04:11;101223.19;;;9.36;100.00
38163;BME280;23977;53.078;18.248;2023-05-23T01:06:37;101218.84;;;9.25;100.00
38163;BME280;23977;53.078;18.248;2023-05-23T01:09:03;101190.63;;;9.05;100.00
38163;BME280;23977;53.078;18.248;2023-05-23T01:11:34;101216.47;;;9.22;100.00
38163;BME280;23977;53.078;18.248;2023-05-23T01:14:17;101193.13;;;8.97;100.00
38163;BME280;23977;53.078;18.248;2023-05-23T01:16:52;101155.97;;;8.77;100.00
38163;BME280;23977;53.078;18.248;2023-05-23T01:19:36;101206.84;;;9.02;100.00
38163;BME280;23977;53.078;18.248;2023-05-23T01:22:15;101192.97;;;8.79;100.00
38163;BME280;23977;53.078;18.248;2023-05-23T01:28:00;101217.03;;;9.16;100.00
38163;BME280;23977;53.078;18.248;2023-05-23T01:30:30;101175.38;;;8.87;100.00
38163;BME280;23977;53.078;18.248;2023-05-23T01:32:58;101129.53;;;8.46;100.00
38163;BME280;23977;53.078;18.248;2023-05-23T01:35:25;101211.72;;;9.06;100.00
38163;BME280;23977;53.078;18.248;2023-05-23T01:37:54;101173.94;;;8.64;100.00
38163;BME280;23977;53.078;18.248;2023-05-23T01:40:22;101180.53;;;8.60;100.00
38163;BME280;23977;53.078;18.248;2023-05-23T01:42:48;101194.50;;;8.72;100.00
38163;BME280;23977;53.078;18.248;2023-05-23T01:45:15;101209.19;;;8.95;100.00
38163;BME280;23977;53.078;18.248;2023-05-23T01:47:42;101179.09;;;8.56;100.00
38163;BME280;23977;53.078;18.248;2023-05-23T01:50:09;101163.03;;;8.47;100.00
38163;BME280;23977;53.078;18.248;2023-05-23T01:52:35;101115.41;;;8.36;100.00
38163;BME280;23977;53.078;18.248;2023-05-23T01:55:02;101197.59;;;8.77;100.00
38163;BME280;23977;53.078;18.248;2023-05-23T01:57:35;101124.31;;;8.35;100.00
38163;BME280;23977;53.078;18.248;2023-05-23T02:00:01;101130.44;;;8.36;100.00
38163;BME280;23977;53.078;18.248;2023-05-23T02:02:26;101137.84;;;8.32;100.00
38163;BME280;23977;53.078;18.248;2023-05-23T02:04:52;101119.53;;;8.19;100.00
38163;BME280;23977;53.078;18.248;2023-05-23T02:07:18;101168.47;;;8.46;100.00
38163;BME280;23977;53.078;18.248;2023-05-23T02:09:48;101126.22;;;8.13;100.00
38163;BME280;23977;53.078;18.248;2023-05-23T02:12:13;101171.34;;;8.33;100.00
38163;BME280;23977;53.078;18.248;2023-05-23T02:14:40;101186.28;;;8.34;100.00
38163;BME280;23977;53.078;18.248;2023-05-23T02:17:07;101141.78;;;7.97;100.00
38163;BME280;23977;53.078;18.248;2023-05-23T02:19:35;101116.88;;;7.78;100.00
38163;BME280;23977;53.078;18.248;2023-05-23T02:22:01;101162.25;;;8.16;100.00
38163;BME280;23977;53.078;18.248;2023-05-23T02:24:28;101127.63;;;8.18;100.00
38163;BME280;23977;53.078;18.248;2023-05-23T02:26:54;101130.38;;;8.57;100.00
38163;BME280;23977;53.078;18.248;2023-05-23T02:29:19;101172.28;;;8.53;100.00
38163;BME280;23977;53.078;18.248;2023-05-23T02:31:45;101098.84;;;8.03;100.00
38163;BME280;23977;53.078;18.248;2023-05-23T02:34:11;101151.09;;;8.32;100.00
38163;BME280;23977;53.078;18.248;2023-05-23T02:36:36;101156.41;;;8.32;100.00
38163;BME280;23977;53.078;18.248;2023-05-23T02:39:04;101171.22;;;8.34;100.00
38163;BME280;23977;53.078;18.248;2023-05-23T02:41:30;101179.16;;;8.25;100.00
38163;BME280;23977;53.078;18.248;2023-05-23T02:43:57;101145.91;;;8.21;100.00
38163;BME280;23977;53.078;18.248;2023-05-23T02:46:22;101163.53;;;8.31;100.00
38163;BME280;23977;53.078;18.248;2023-05-23T02:48:48;101116.47;;;8.24;100.00
38163;BME280;23977;53.078;18.248;2023-05-23T02:51:13;101131.31;;;8.36;100.00
38163;BME280;23977;53.078;18.248;2023-05-23T02:53:39;101094.13;;;8.17;100.00
38163;BME280;23977;53.078;18.248;2023-05-23T02:56:06;101101.56;;;8.23;100.00
38163;BME280;23977;53.078;18.248;2023-05-23T02:58:32;101141.97;;;8.56;100.00
38163;BME280;23977;53.078;18.248;2023-05-23T03:01:03;101168.28;;;8.98;100.00
38163;BME280;23977;53.078;18.248;2023-05-23T03:03:28;101123.44;;;8.95;100.00
38163;BME280;23977;53.078;18.248;2023-05-23T03:05:56;101123.91;;;9.37;100.00
38163;BME280;23977;53.078;18.248;2023-05-23T03:08:22;101104.44;;;9.56;100.00
38163;BME280;23977;53.078;18.248;2023-05-23T03:10:48;101170.34;;;10.28;100.00
38163;BME280;23977;53.078;18.248;2023-05-23T03:13:14;101137.19;;;10.50;100.00
38163;BME280;23977;53.078;18.248;2023-05-23T03:15:40;101166.00;;;11.26;100.00
38163;BME280;23977;53.078;18.248;2023-05-23T03:18:06;101131.06;;;11.56;100.00
38163;BME280;23977;53.078;18.248;2023-05-23T03:20:32;101094.28;;;11.94;99.63
38163;BME280;23977;53.078;18.248;2023-05-23T03:22:57;101099.28;;;12.48;95.39
38163;BME280;23977;53.078;18.248;2023-05-23T03:25:23;101178.34;;;13.41;91.36
38163;BME280;23977;53.078;18.248;2023-05-23T03:27:49;101100.97;;;13.31;87.20
38163;BME280;23977;53.078;18.248;2023-05-23T03:30:14;101148.41;;;14.10;83.58
38163;BME280;23977;53.078;18.248;2023-05-23T03:32:40;101149.59;;;14.70;80.88
38163;BME280;23977;53.078;18.248;2023-05-23T03:35:07;101118.63;;;15.13;77.58
38163;BME280;23977;53.078;18.248;2023-05-23T03:37:32;101152.03;;;15.94;73.20
38163;BME280;23977;53.078;18.248;2023-05-23T03:39:58;101156.03;;;16.49;70.90
38163;BME280;23977;53.078;18.248;2023-05-23T03:42:24;101138.44;;;16.68;69.08
38163;BME280;23977;53.078;18.248;2023-05-23T03:44:49;101146.84;;;17.23;66.91
38163;BME280;23977;53.078;18.248;2023-05-23T03:47:15;101099.91;;;17.61;64.48
38163;BME280;23977;53.078;18.248;2023-05-23T03:49:41;101119.41;;;17.69;64.37
38163;BME280;23977;53.078;18.248;2023-05-23T03:52:06;101132.53;;;18.21;63.68
38163;BME280;23977;53.078;18.248;2023-05-23T03:54:32;101076.06;;;18.74;60.64
38163;BME280;23977;53.078;18.248;2023-05-23T03:56:58;101081.63;;;19.46;59.21
38163;BME280;23977;53.078;18.248;2023-05-23T03:59:23;101100.94;;;20.15;57.04
38163;BME280;23977;53.078;18.248;2023-05-23T04:01:49;101147.41;;;21.07;54.93
38163;BME280;23977;53.078;18.248;2023-05-23T04:04:15;101125.44;;;21.66;52.06
38163;BME280;23977;53.078;18.248;2023-05-23T04:06:41;101084.63;;;21.98;51.16
38163;BME280;23977;53.078;18.248;2023-05-23T04:09:08;101136.75;;;23.03;49.12
38163;BME280;23977;53.078;18.248;2023-05-23T04:11:33;101122.19;;;23.27;48.49
38163;BME280;23977;53.078;18.248;2023-05-23T04:13:59;101118.66;;;24.03;46.19
38163;BME280;23977;53.078;18.248;2023-05-23T04:16:26;101093.38;;;23.26;47.44
38163;BME280;23977;53.078;18.248;2023-05-23T04:18:52;101078.16;;;23.90;45.49
38163;BME280;23977;53.078;18.248;2023-05-23T04:21:18;101064.88;;;24.05;44.40
38163;BME280;23977;53.078;18.248;2023-05-23T04:23:44;101063.94;;;24.57;43.19
38163;BME280;23977;53.078;18.248;2023-05-23T04:26:10;101113.03;;;25.30;42.50
38163;BME280;23977;53.078;18.248;2023-05-23T04:28:36;101075.41;;;25.27;41.86
38163;BME280;23977;53.078;18.248;2023-05-23T04:31:02;101106.84;;;24.84;42.93
38163;BME280;23977;53.078;18.248;2023-05-23T04:33:29;101121.19;;;23.93;44.40
38163;BME280;23977;53.078;18.248;2023-05-23T04:35:55;101075.88;;;22.99;46.28
38163;BME280;23977;53.078;18.248;2023-05-23T04:38:22;101095.59;;;23.18;46.84
38163;BME280;23977;53.078;18.248;2023-05-23T04:40:50;101090.75;;;23.08;46.03
38163;BME280;23977;53.078;18.248;2023-05-23T04:43:19;101115.66;;;22.51;49.00
38163;BME280;23977;53.078;18.248;2023-05-23T04:45:46;101110.25;;;22.63;49.11
38163;BME280;23977;53.078;18.248;2023-05-23T04:48:14;101078.25;;;22.53;48.40
38163;BME280;23977;53.078;18.248;2023-05-23T04:50:42;101107.06;;;23.32;47.68
38163;BME280;23977;53.078;18.248;2023-05-23T04:53:08;101100.22;;;23.41;46.00
38163;BME280;23977;53.078;18.248;2023-05-23T04:55:33;101114.13;;;23.44;45.44
38163;BME280;23977;53.078;18.248;2023-05-23T04:57:59;101064.25;;;24.15;44.22
38163;BME280;23977;53.078;18.248;2023-05-23T05:00:25;101088.75;;;25.11;41.80
38163;BME280;23977;53.078;18.248;2023-05-23T05:02:51;101029.28;;;25.64;39.97
38163;BME280;23977;53.078;18.248;2023-05-23T05:05:22;101014.97;;;26.29;38.54
38163;BME280;23977;53.078;18.248;2023-05-23T05:07:48;100995.38;;;27.07;37.17
38163;BME280;23977;53.078;18.248;2023-05-23T05:10:14;101046.00;;;27.83;35.94
38163;BME280;23977;53.078;18.248;2023-05-23T05:12:49;101078.13;;;28.13;35.53
38163;BME280;23977;53.078;18.248;2023-05-23T05:15:15;101076.53;;;28.84;34.27
38163;BME280;23977;53.078;18.248;2023-05-23T05:17:43;101083.63;;;29.31;33.26
38163;BME280;23977;53.078;18.248;2023-05-23T05:20:09;101103.03;;;29.50;34.06
38163;BME280;23977;53.078;18.248;2023-05-23T05:22:38;101073.06;;;30.19;32.72
38163;BME280;23977;53.078;18.248;2023-05-23T05:25:08;101094.75;;;30.26;32.38
38163;BME280;23977;53.078;18.248;2023-05-23T05:27:35;101078.16;;;30.76;32.24
38163;BME280;23977;53.078;18.248;2023-05-23T05:30:08;101090.84;;;30.72;32.12
38163;BME280;23977;53.078;18.248;2023-05-23T05:32:34;101049.88;;;31.05;31.39
38163;BME280;23977;53.078;18.248;2023-05-23T05:35:01;101076.59;;;32.15;29.34
38163;BME280;23977;53.078;18.248;2023-05-23T05:37:27;101072.09;;;31.81;30.33
38163;BME280;23977;53.078;18.248;2023-05-23T05:39:53;101044.03;;;31.35;31.19
38163;BME280;23977;53.078;18.248;2023-05-23T05:42:20;101058.06;;;32.01;30.02
38163;BME280;23977;53.078;18.248;2023-05-23T05:44:46;101076.06;;;32.97;29.59
38163;BME280;23977;53.078;18.248;2023-05-23T05:47:12;101053.75;;;33.27;28.65
38163;BME280;23977;53.078;18.248;2023-05-23T05:49:38;101063.28;;;34.35;27.32
38163;BME280;23977;53.078;18.248;2023-05-23T05:52:05;101069.53;;;33.90;27.59
38163;BME280;23977;53.078;18.248;2023-05-23T05:54:31;101060.47;;;34.26;27.53
38163;BME280;23977;53.078;18.248;2023-05-23T05:56:57;101057.31;;;34.64;27.19
38163;BME280;23977;53.078;18.248;2023-05-23T05:59:22;101054.91;;;34.49;26.89
38163;BME280;23977;53.078;18.248;2023-05-23T06:01:48;101032.56;;;34.91;26.54
38163;BME280;23977;53.078;18.248;2023-05-23T06:04:17;101053.28;;;35.42;26.46
38163;BME280;23977;53.078;18.248;2023-05-23T06:06:43;101045.25;;;35.23;25.75
38163;BME280;23977;53.078;18.248;2023-05-23T06:09:09;101011.91;;;34.88;25.93
38163;BME280;23977;53.078;18.248;2023-05-23T06:11:35;101039.91;;;35.35;25.56
38163;BME280;23977;53.078;18.248;2023-05-23T06:14:05;101020.06;;;35.42;25.92
38163;BME280;23977;53.078;18.248;2023-05-23T06:16:31;101037.97;;;34.19;26.96
38163;BME280;23977;53.078;18.248;2023-05-23T06:18:56;101009.09;;;34.25;27.11
38163;BME280;23977;53.078;18.248;2023-05-23T06:21:22;101039.66;;;34.52;27.03
38163;BME280;23977;53.078;18.248;2023-05-23T06:23:48;100985.09;;;34.35;26.55
38163;BME280;23977;53.078;18.248;2023-05-23T06:26:13;101026.63;;;35.72;25.45
38163;BME280;23977;53.078;18.248;2023-05-23T06:28:39;101030.09;;;35.78;25.81
38163;BME280;23977;53.078;18.248;2023-05-23T06:31:05;101009.44;;;37.65;23.78
38163;BME280;23977;53.078;18.248;2023-05-23T06:33:31;101008.41;;;35.98;24.81
38163;BME280;23977;53.078;18.248;2023-05-23T06:35:57;100989.00;;;34.96;25.58
38163;BME280;23977;53.078;18.248;2023-05-23T06:38:23;100984.34;;;35.14;25.51
38163;BME280;23977;53.078;18.248;2023-05-23T06:40:48;101021.53;;;35.31;25.62
38163;BME280;23977;53.078;18.248;2023-05-23T06:43:14;101012.78;;;36.42;24.36
38163;BME280;23977;53.078;18.248;2023-05-23T06:45:40;101012.16;;;37.52;23.27
38163;BME280;23977;53.078;18.248;2023-05-23T06:48:05;100990.97;;;37.69;22.81
38163;BME280;23977;53.078;18.248;2023-05-23T06:50:31;101014.03;;;38.03;22.27
38163;BME280;23977;53.078;18.248;2023-05-23T06:52:56;101007.66;;;37.60;22.92
38163;BME280;23977;53.078;18.248;2023-05-23T06:55:22;100969.47;;;37.36;23.17
38163;BME280;23977;53.078;18.248;2023-05-23T06:57:48;101000.84;;;38.33;20.99
38163;BME280;23977;53.078;18.248;2023-05-23T07:00:17;101006.97;;;38.26;21.29
38163;BME280;23977;53.078;18.248;2023-05-23T07:02:43;100973.25;;;38.61;21.30
38163;BME280;23977;53.078;18.248;2023-05-23T07:05:15;100992.94;;;39.83;18.58
38163;BME280;23977;53.078;18.248;2023-05-23T07:07:42;100969.75;;;39.79;19.88
38163;BME280;23977;53.078;18.248;2023-05-23T07:10:08;100984.84;;;40.82;17.90
38163;BME280;23977;53.078;18.248;2023-05-23T07:12:34;100967.50;;;41.64;15.86
38163;BME280;23977;53.078;18.248;2023-05-23T07:15:01;100972.97;;;41.76;14.86
38163;BME280;23977;53.078;18.248;2023-05-23T07:17:27;100966.13;;;40.83;16.96
38163;BME280;23977;53.078;18.248;2023-05-23T07:19:55;100971.94;;;40.62;16.34
38163;BME280;23977;53.078;18.248;2023-05-23T07:22:20;100946.72;;;40.10;16.39
38163;BME280;23977;53.078;18.248;2023-05-23T07:24:46;100932.75;;;39.94;16.54
38163;BME280;23977;53.078;18.248;2023-05-23T07:27:12;100956.31;;;38.79;16.94
38163;BME280;23977;53.078;18.248;2023-05-23T07:29:38;100960.19;;;36.63;18.16
38163;BME280;23977;53.078;18.248;2023-05-23T07:32:04;100961.03;;;35.73;19.42
38163;BME280;23977;53.078;18.248;2023-05-23T07:34:30;100956.53;;;35.19;19.70
38163;BME280;23977;53.078;18.248;2023-05-23T07:36:55;100956.13;;;34.86;19.86
38163;BME280;23977;53.078;18.248;2023-05-23T07:39:21;100920.50;;;34.53;20.69
38163;BME280;23977;53.078;18.248;2023-05-23T07:41:48;100950.91;;;35.51;19.71
38163;BME280;23977;53.078;18.248;2023-05-23T07:44:16;100953.00;;;36.06;19.00
38163;BME280;23977;53.078;18.248;2023-05-23T07:46:42;100956.31;;;36.56;19.12
38163;BME280;23977;53.078;18.248;2023-05-23T07:49:08;100960.66;;;37.34;18.54
38163;BME280;23977;53.078;18.248;2023-05-23T07:51:33;100947.22;;;37.99;17.93
38163;BME280;23977;53.078;18.248;2023-05-23T07:53:59;100901.63;;;37.46;17.88
38163;BME280;23977;53.078;18.248;2023-05-23T07:56:25;100952.16;;;37.81;18.27
38163;BME280;23977;53.078;18.248;2023-05-23T07:58:51;100926.41;;;38.88;16.54
38163;BME280;23977;53.078;18.248;2023-05-23T08:01:17;100941.53;;;39.52;15.80
38163;BME280;23977;53.078;18.248;2023-05-23T08:03:44;100948.34;;;39.55;16.58
38163;BME280;23977;53.078;18.248;2023-05-23T08:06:10;100947.94;;;39.97;15.74
38163;BME280;23977;53.078;18.248;2023-05-23T08:08:36;100912.72;;;40.37;15.90
38163;BME280;23977;53.078;18.248;2023-05-23T08:11:02;100944.69;;;41.22;15.84
38163;BME280;23977;53.078;18.248;2023-05-23T08:13:29;100932.16;;;40.33;15.76
38163;BME280;23977;53.078;18.248;2023-05-23T08:15:56;100940.97;;;40.35;16.21
38163;BME280;23977;53.078;18.248;2023-05-23T08:18:22;100922.84;;;40.41;15.09
38163;BME280;23977;53.078;18.248;2023-05-23T08:20:48;100930.38;;;40.57;14.66
38163;BME280;23977;53.078;18.248;2023-05-23T08:23:14;100941.03;;;39.78;15.29
38163;BME280;23977;53.078;18.248;2023-05-23T08:25:39;100928.47;;;39.85;15.59
38163;BME280;23977;53.078;18.248;2023-05-23T08:28:05;100918.59;;;39.31;15.74
38163;BME280;23977;53.078;18.248;2023-05-23T08:30:30;100905.00;;;40.14;15.21
38163;BME280;23977;53.078;18.248;2023-05-23T08:32:58;100933.97;;;43.29;14.27
38163;BME280;23977;53.078;18.248;2023-05-23T08:35:25;100932.34;;;44.93;13.13
38163;BME280;23977;53.078;18.248;2023-05-23T08:37:51;100906.19;;;45.69;12.26
38163;BME280;23977;53.078;18.248;2023-05-23T08:40:18;100925.63;;;43.02;13.73
38163;BME280;23977;53.078;18.248;2023-05-23T08:42:46;100873.69;;;43.09;13.84
38163;BME280;23977;53.078;18.248;2023-05-23T08:45:12;100907.09;;;46.13;11.88
38163;BME280;23977;53.078;18.248;2023-05-23T08:47:41;100880.94;;;46.56;10.54
38163;BME280;23977;53.078;18.248;2023-05-23T08:50:09;100883.47;;;47.42;11.94
38163;BME280;23977;53.078;18.248;2023-05-23T08:52:42;100907.16;;;48.95;10.28
38163;BME280;23977;53.078;18.248;2023-05-23T08:55:10;100906.50;;;49.18;9.47
38163;BME280;23977;53.078;18.248;2023-05-23T08:57:36;100888.63;;;49.55;10.32
38163;BME280;23977;53.078;18.248;2023-05-23T09:00:03;100893.41;;;48.97;10.00
38163;BME280;23977;53.078;18.248;2023-05-23T09:02:35;100880.31;;;45.13;11.32
38163;BME280;23977;53.078;18.248;2023-05-23T09:05:01;100912.00;;;42.51;12.75
38163;BME280;23977;53.078;18.248;2023-05-23T09:07:27;100910.31;;;42.96;13.20
38163;BME280;23977;53.078;18.248;2023-05-23T09:09:53;100866.53;;;43.11;12.76
38163;BME280;23977;53.078;18.248;2023-05-23T09:12:19;100875.00;;;43.86;12.28
38163;BME280;23977;53.078;18.248;2023-05-23T09:14:47;100904.06;;;42.80;12.96
38163;BME280;23977;53.078;18.248;2023-05-23T09:17:17;100907.19;;;40.53;14.50
38163;BME280;23977;53.078;18.248;2023-05-23T09:19:42;100866.25;;;40.09;15.08
38163;BME280;23977;53.078;18.248;2023-05-23T09:22:08;100897.88;;;39.44;15.12
38163;BME280;23977;53.078;18.248;2023-05-23T09:24:35;100899.16;;;37.02;16.71
38163;BME280;23977;53.078;18.248;2023-05-23T09:27:01;100879.72;;;35.60;17.68
38163;BME280;23977;53.078;18.248;2023-05-23T09:29:29;100855.81;;;35.38;18.01
38163;BME280;23977;53.078;18.248;2023-05-23T09:32:12;100904.69;;;36.42;18.01
38163;BME280;23977;53.078;18.248;2023-05-23T09:34:58;100866.88;;;36.29;17.79
38163;BME280;23977;53.078;18.248;2023-05-23T09:39:54;100849.91;;;36.69;17.51
38163;BME280;23977;53.078;18.248;2023-05-23T09:42:20;100832.41;;;37.40;17.16
38163;BME280;23977;53.078;18.248;2023-05-23T09:44:49;100902.50;;;36.87;17.88
38163;BME280;23977;53.078;18.248;2023-05-23T09:47:16;100786.06;;;36.27;17.76
38163;BME280;23977;53.078;18.248;2023-05-23T09:49:43;100908.84;;;36.96;17.59
38163;BME280;23977;53.078;18.248;2023-05-23T09:52:09;100882.50;;;35.34;18.92
38163;BME280;23977;53.078;18.248;2023-05-23T09:54:35;100914.78;;;34.41;20.27
38163;BME280;23977;53.078;18.248;2023-05-23T09:57:01;100900.72;;;34.69;19.47
38163;BME280;23977;53.078;18.248;2023-05-23T09:59:30;100882.56;;;36.16;18.49
38163;BME280;23977;53.078;18.248;2023-05-23T10:02:01;100905.22;;;38.01;17.48
38163;BME280;23977;53.078;18.248;2023-05-23T10:04:30;100879.63;;;40.03;15.81
38163;BME280;23977;53.078;18.248;2023-05-23T10:07:04;100811.78;;;39.51;15.48
38163;BME280;23977;53.078;18.248;2023-05-23T10:09:35;100882.44;;;39.59;15.90
38163;BME280;23977;53.078;18.248;2023-05-23T10:14:51;100882.00;;;35.84;19.12
38163;BME280;23977;53.078;18.248;2023-05-23T10:17:39;100861.50;;;33.27;20.74
38163;BME280;23977;53.078;18.248;2023-05-23T10:20:14;100896.16;;;32.64;22.23
38163;BME280;23977;53.078;18.248;2023-05-23T10:22:41;100859.19;;;32.23;22.94
38163;BME280;23977;53.078;18.248;2023-05-23T10:25:08;100897.81;;;32.65;22.41
38163;BME280;23977;53.078;18.248;2023-05-23T10:27:37;100889.69;;;32.27;22.71
38163;BME280;23977;53.078;18.248;2023-05-23T10:30:04;100822.50;;;31.95;22.95
38163;BME280;23977;53.078;18.248;2023-05-23T10:32:31;100886.31;;;33.13;22.49
38163;BME280;23977;53.078;18.248;2023-05-23T10:34:58;100884.03;;;32.65;22.07
38163;BME280;23977;53.078;18.248;2023-05-23T10:37:44;100887.06;;;31.13;23.04
38163;BME280;23977;53.078;18.248;2023-05-23T10:40:30;100847.97;;;30.73;23.32
38163;BME280;23977;53.078;18.248;2023-05-23T10:43:04;100805.97;;;30.48;23.60
38163;BME280;23977;53.078;18.248;2023-05-23T10:45:39;100832.75;;;30.80;23.90
38163;BME280;23977;53.078;18.248;2023-05-23T10:51:14;100812.28;;;30.49;22.97
38163;BME280;23977;53.078;18.248;2023-05-23T10:53:54;100817.94;;;31.39;23.75
38163;BME280;23977;53.078;18.248;2023-05-23T10:56:23;100864.09;;;32.40;22.32
38163;BME280;23977;53.078;18.248;2023-05-23T10:58:59;100884.00;;;31.71;21.97
38163;BME280;23977;53.078;18.248;2023-05-23T11:01:54;100872.34;;;32.13;22.46
38163;BME280;23977;53.078;18.248;2023-05-23T11:05:21;100873.31;;;32.50;21.98
38163;BME280;23977;53.078;18.248;2023-05-23T11:08:07;100874.00;;;32.41;21.70
38163;BME280;23977;53.078;18.248;2023-05-23T11:11:02;100871.94;;;32.19;21.65
38163;BME280;23977;53.078;18.248;2023-05-23T11:16:29;100860.41;;;29.82;23.65
38163;BME280;23977;53.078;18.248;2023-05-23T11:19:21;100884.13;;;29.63;24.40
38163;BME280;23977;53.078;18.248;2023-05-23T11:22:01;100868.56;;;29.03;25.01
38163;BME280;23977;53.078;18.248;2023-05-23T11:24:51;100881.25;;;28.78;24.58
38163;BME280;23977;53.078;18.248;2023-05-23T11:27:39;100740.66;;;28.33;24.81
38163;BME280;23977;53.078;18.248;2023-05-23T11:30:14;100800.91;;;28.23;24.01
38163;BME280;23977;53.078;18.248;2023-05-23T11:32:49;100667.03;;;27.10;24.84
38163;BME280;23977;53.078;18.248;2023-05-23T11:36:05;100669.19;;;26.82;25.32
38163;BME280;23977;53.078;18.248;2023-05-23T11:39:13;100865.47;;;28.34;26.29
38163;BME280;23977;53.078;18.248;2023-05-23T11:42:49;100801.47;;;28.04;26.14
38163;BME280;23977;53.078;18.248;2023-05-23T11:46:09;100712.94;;;27.69;26.20
38163;BME280;23977;53.078;18.248;2023-05-23T11:48:47;100791.06;;;28.22;25.98
38163;BME280;23977;53.078;18.248;2023-05-23T11:51:16;100658.56;;;27.32;25.69
38163;BME280;23977;53.078;18.248;2023-05-23T11:53:45;100763.50;;;27.77;25.89
38163;BME280;23977;53.078;18.248;2023-05-23T11:56:13;100673.03;;;27.17;26.68
38163;BME280;23977;53.078;18.248;2023-05-23T11:58:40;100651.19;;;27.12;25.90
38163;BME280;23977;53.078;18.248;2023-05-23T12:01:11;100642.47;;;27.05;27.44
38163;BME280;23977;53.078;18.248;2023-05-23T12:04:08;100653.34;;;26.74;26.42
38163;BME280;23977;53.078;18.248;2023-05-23T12:06:39;100671.13;;;26.82;26.51
38163;BME280;23977;53.078;18.248;2023-05-23T12:09:27;100845.78;;;27.91;26.13
38163;BME280;23977;53.078;18.248;2023-05-23T12:12:04;100629.25;;;26.45;26.55
38163;BME280;23977;53.078;18.248;2023-05-23T12:15:08;100687.25;;;26.99;26.59
38163;BME280;23977;53.078;18.248;2023-05-23T12:17:49;100697.88;;;27.21;26.48
38163;BME280;23977;53.078;18.248;2023-05-23T12:20:28;100760.78;;;27.41;26.05
38163;BME280;23977;53.078;18.248;2023-05-23T12:22:57;100739.13;;;27.19;26.97
38163;BME280;23977;53.078;18.248;2023-05-23T12:25:40;100678.41;;;26.55;25.10
38163;BME280;23977;53.078;18.248;2023-05-23T12:28:10;100632.84;;;25.93;26.30
38163;BME280;23977;53.078;18.248;2023-05-23T12:31:37;100845.13;;;27.07;27.17
38163;BME280;23977;53.078;18.248;2023-05-23T12:33:57;100673.00;;;25.55;27.97
38163;BME280;23977;53.078;18.248;2023-05-23T12:36:28;100711.00;;;25.34;27.57
38163;BME280;23977;53.078;18.248;2023-05-23T12:39:06;100654.72;;;24.85;28.43
38163;BME280;23977;53.078;18.248;2023-05-23T12:41:34;100639.56;;;24.67;28.62
38163;BME280;23977;53.078;18.248;2023-05-23T12:44:06;100624.66;;;24.48;29.18
38163;BME280;23977;53.078;18.248;2023-05-23T12:46:37;100662.38;;;24.61;29.44
38163;BME280;23977;53.078;18.248;2023-05-23T12:49:13;100753.84;;;25.44;28.78
38163;BME280;23977;53.078;18.248;2023-05-23T12:51:43;100632.75;;;24.43;28.89
38163;BME280;23977;53.078;18.248;2023-05-23T12:54:09;100605.47;;;24.32;29.66
38163;BME280;23977;53.078;18.248;2023-05-23T12:56:38;100783.03;;;25.48;29.49
38163;BME280;23977;53.078;18.248;2023-05-23T12:59:07;100689.03;;;25.19;29.83
38163;BME280;23977;53.078;18.248;2023-05-23T13:01:34;100642.72;;;25.14;28.98
38163;BME280;23977;53.078;18.248;2023-05-23T13:04:00;100623.78;;;25.29;28.46
38163;BME280;23977;53.078;18.248;2023-05-23T13:06:27;100593.44;;;25.15;28.62